Time;durP1;ratioP1;P1;durP2;ratioP2;P2;SDS_P1;SDS_P2;PMS_P1;PMS_P2;Temp;Humidity;BMP_temperature;BMP_pressure;BME280_temperature;BME280_humidity;BME280_pressure;Samples;Min_cycle;Max_cycle;Signal;HPM_P1;HPM_P2
2021/11/19 00:00:35;;;;;;;22.58;12.55;;;;;;;;;;5039177;28;20190;-77
2021/11/19 00:03:01;;;;;;;22.10;12.77;;;;;;;;;;5040951;28;20218;-76
2021/11/19 00:05:26;;;;;;;24.92;12.23;;;;;;;;;;5039866;28;20197;-75
2021/11/19 00:07:51;;;;;;;18.93;12.63;;;;;;;;;;5035545;28;20764;-76
2021/11/19 00:10:17;;;;;;;18.50;11.90;;;;;;;;;;5036413;28;20182;-78
2021/11/19 00:12:43;;;;;;;23.40;11.97;;;;;;;;;;5040511;28;20783;-76
2021/11/19 00:15:08;;;;;;;19.67;12.63;;;;;;;;;;5019987;28;20271;-78
2021/11/19 00:17:34;;;;;;;22.30;12.13;;;;;;;;;;5038030;28;20295;-76
2021/11/19 00:19:59;;;;;;;20.20;12.17;;;;;;;;;;5041982;28;22142;-77
2021/11/19 00:22:24;;;;;;;19.50;12.27;;;;;;;;;;5039917;28;20569;-77
2021/11/19 00:24:50;;;;;;;20.17;11.97;;;;;;;;;;5042422;28;20722;-81
2021/11/19 00:27:17;;;;;;;17.27;11.88;;;;;;;;;;5039360;28;20817;-80
2021/11/19 00:29:43;;;;;;;21.45;11.60;;;;;;;;;;5039383;28;20677;-78
2021/11/19 00:32:10;;;;;;;21.37;11.40;;;;;;;;;;5023733;28;20178;-78
2021/11/19 00:34:35;;;;;;;16.93;12.67;;;;;;;;;;5046185;28;20682;-77
2021/11/19 00:37:00;;;;;;;24.98;12.55;;;;;;;;;;5040109;28;20202;-78
2021/11/19 00:39:26;;;;;;;18.10;11.85;;;;;;;;;;5022214;28;20259;-79
2021/11/19 00:41:52;;;;;;;17.30;11.53;;;;;;;;;;5034646;28;20658;-76
2021/11/19 00:44:18;;;;;;;18.52;13.27;;;;;;;;;;5037340;28;20213;-77
2021/11/19 00:46:44;;;;;;;16.35;11.98;;;;;;;;;;5037457;28;20618;-76
2021/11/19 00:49:10;;;;;;;22.23;13.70;;;;;;;;;;5040157;28;20329;-76
2021/11/19 00:51:38;;;;;;;22.70;13.87;;;;;;;;;;5040170;28;20650;-80
2021/11/19 00:54:05;;;;;;;18.40;12.33;;;;;;;;;;5036831;28;20218;-79
2021/11/19 00:56:31;;;;;;;24.50;13.63;;;;;;;;;;5021094;28;20197;-82
2021/11/19 00:58:57;;;;;;;24.73;13.50;;;;;;;;;;5036017;28;20780;-77
2021/11/19 01:01:25;;;;;;;22.90;12.73;;;;;;;;;;5036645;28;21182;-75
2021/11/19 01:03:50;;;;;;;24.15;12.32;;;;;;;;;;5038681;28;21675;-78
2021/11/19 01:06:15;;;;;;;18.80;13.50;;;;;;;;;;5038307;28;20275;-76
2021/11/19 01:08:41;;;;;;;27.63;15.10;;;;;;;;;;5042119;28;20193;-76
2021/11/19 01:11:08;;;;;;;22.77;13.63;;;;;;;;;;5037184;28;20741;-80
2021/11/19 01:13:35;;;;;;;39.03;16.05;;;;;;;;;;5018085;28;20498;-77
2021/11/19 01:16:03;;;;;;;26.65;15.88;;;;;;;;;;5044307;28;20292;-76
2021/11/19 01:18:37;;;;;;;24.87;13.30;;;;;;;;;;5040469;28;20474;-77
2021/11/19 01:21:13;;;;;;;23.63;14.87;;;;;;;;;;5042983;28;20255;-76
2021/11/19 01:23:39;;;;;;;22.48;14.25;;;;;;;;;;5041488;28;20575;-80
2021/11/19 01:26:07;;;;;;;21.95;14.30;;;;;;;;;;5041893;28;20752;-76
2021/11/19 01:28:32;;;;;;;22.90;13.93;;;;;;;;;;5021208;28;20786;-76
2021/11/19 01:31:01;;;;;;;23.92;15.02;;;;;;;;;;5040852;28;20203;-78
2021/11/19 01:33:27;;;;;;;22.97;15.00;;;;;;;;;;5036928;28;20188;-81
2021/11/19 01:35:52;;;;;;;20.05;13.85;;;;;;;;;;5039493;28;20208;-80
2021/11/19 01:38:18;;;;;;;23.20;15.43;;;;;;;;;;5035496;28;20185;-77
2021/11/19 01:40:46;;;;;;;25.57;15.30;;;;;;;;;;5037627;28;20177;-79
2021/11/19 01:43:12;;;;;;;21.50;14.33;;;;;;;;;;5019995;28;20227;-79
2021/11/19 01:45:39;;;;;;;26.73;16.95;;;;;;;;;;5038422;28;20213;-80
2021/11/19 01:48:06;;;;;;;25.73;16.08;;;;;;;;;;5020569;28;20320;-79
2021/11/19 01:50:35;;;;;;;25.63;15.63;;;;;;;;;;5037126;28;20663;-81
2021/11/19 01:53:00;;;;;;;22.20;14.93;;;;;;;;;;5036548;28;20276;-77
2021/11/19 01:55:28;;;;;;;25.60;15.93;;;;;;;;;;5035558;28;20696;-78
2021/11/19 01:58:03;;;;;;;28.25;16.10;;;;;;;;;;5041801;28;20529;-80
2021/11/19 02:00:29;;;;;;;26.75;15.77;;;;;;;;;;5035107;28;20203;-77
2021/11/19 02:02:55;;;;;;;26.00;16.00;;;;;;;;;;5035592;28;20197;-76
2021/11/19 02:05:36;;;;;;;31.13;16.73;;;;;;;;;;5037390;28;20675;-80
2021/11/19 02:08:07;;;;;;;19.92;14.63;;;;;;;;;;5038098;28;20220;-79
2021/11/19 02:10:53;;;;;;;29.33;17.08;;;;;;;;;;5037749;28;20231;-77
2021/11/19 02:13:24;;;;;;;28.48;18.23;;;;;;;;;;5037434;28;20224;-80
2021/11/19 02:15:55;;;;;;;26.23;17.58;;;;;;;;;;5042474;28;20216;-76
2021/11/19 02:18:23;;;;;;;25.20;16.25;;;;;;;;;;5036649;28;20197;-76
2021/11/19 02:20:51;;;;;;;24.70;16.57;;;;;;;;;;5037079;28;20299;-79
2021/11/19 02:23:19;;;;;;;25.50;18.15;;;;;;;;;;5017512;28;20220;-78
2021/11/19 02:25:47;;;;;;;23.02;16.73;;;;;;;;;;5032331;28;20202;-78
2021/11/19 02:28:16;;;;;;;26.70;17.70;;;;;;;;;;5035796;28;20234;-77
2021/11/19 02:30:50;;;;;;;28.05;16.88;;;;;;;;;;5037398;28;20169;-79
2021/11/19 02:33:16;;;;;;;25.25;17.58;;;;;;;;;;5036455;28;20199;-79
2021/11/19 02:35:59;;;;;;;28.13;16.65;;;;;;;;;;5034625;28;20210;-77
2021/11/19 02:38:30;;;;;;;26.92;17.60;;;;;;;;;;5036468;28;20197;-77
2021/11/19 02:40:55;;;;;;;25.05;17.45;;;;;;;;;;5036191;28;20185;-76
2021/11/19 02:43:23;;;;;;;23.55;16.38;;;;;;;;;;5035017;28;20692;-79
2021/11/19 02:45:50;;;;;;;23.85;16.60;;;;;;;;;;5037033;28;20221;-78
2021/11/19 02:48:25;;;;;;;23.30;18.35;;;;;;;;;;5041216;28;20186;-76
2021/11/19 02:50:51;;;;;;;23.83;16.52;;;;;;;;;;5042993;28;20271;-75
2021/11/19 02:53:17;;;;;;;28.88;18.13;;;;;;;;;;5031070;28;20208;-75
2021/11/19 02:55:44;;;;;;;23.17;17.95;;;;;;;;;;5042473;28;20697;-78
2021/11/19 02:58:10;;;;;;;27.50;18.35;;;;;;;;;;5036327;28;20664;-78
2021/11/19 03:00:40;;;;;;;25.42;18.35;;;;;;;;;;5036831;28;20193;-80
2021/11/19 03:03:05;;;;;;;27.30;18.45;;;;;;;;;;5033858;28;20200;-76
2021/11/19 03:05:30;;;;;;;29.67;20.10;;;;;;;;;;5039684;28;20235;-76
2021/11/19 03:07:56;;;;;;;31.05;19.02;;;;;;;;;;5037776;28;20186;-77
2021/11/19 03:10:31;;;;;;;28.45;20.55;;;;;;;;;;5034740;28;20521;-76
2021/11/19 03:12:57;;;;;;;28.80;19.35;;;;;;;;;;5037275;28;20188;-76
2021/11/19 03:15:25;;;;;;;31.77;19.48;;;;;;;;;;5035886;28;20267;-76
2021/11/19 03:17:50;;;;;;;28.48;19.30;;;;;;;;;;5036902;28;20194;-79
2021/11/19 03:20:16;;;;;;;30.10;20.42;;;;;;;;;;5040455;28;20667;-76
2021/11/19 03:22:42;;;;;;;27.52;19.63;;;;;;;;;;5035377;28;20643;-76
2021/11/19 03:25:08;;;;;;;28.10;19.55;;;;;;;;;;5038577;28;20272;-77
2021/11/19 03:27:33;;;;;;;27.05;20.08;;;;;;;;;;5050659;28;20244;-78
2021/11/19 03:29:59;;;;;;;29.98;20.38;;;;;;;;;;5037760;28;20209;-76
2021/11/19 03:32:26;;;;;;;30.15;19.60;;;;;;;;;;5019659;28;20185;-76
2021/11/19 03:34:51;;;;;;;29.58;19.58;;;;;;;;;;5020976;28;20219;-76
2021/11/19 03:37:16;;;;;;;35.17;22.25;;;;;;;;;;5034876;28;20336;-76
2021/11/19 03:39:42;;;;;;;30.88;19.23;;;;;;;;;;5029179;28;20190;-77
2021/11/19 03:42:10;;;;;;;31.08;19.27;;;;;;;;;;5035724;28;20186;-75
2021/11/19 03:44:44;;;;;;;27.25;20.50;;;;;;;;;;5034354;28;20174;-77
2021/11/19 03:47:11;;;;;;;28.08;19.08;;;;;;;;;;5037817;28;20207;-77
2021/11/19 03:49:37;;;;;;;28.15;19.63;;;;;;;;;;5033245;28;20185;-77
2021/11/19 03:52:08;;;;;;;34.63;20.73;;;;;;;;;;5039455;28;20240;-76
2021/11/19 03:54:34;;;;;;;27.48;19.33;;;;;;;;;;5033730;28;20834;-76
2021/11/19 03:57:00;;;;;;;29.65;21.42;;;;;;;;;;5036435;28;20213;-77
2021/11/19 03:59:25;;;;;;;29.00;17.85;;;;;;;;;;5035963;28;20805;-78
2021/11/19 04:01:51;;;;;;;31.20;19.33;;;;;;;;;;5035706;28;20182;-76
2021/11/19 04:04:18;;;;;;;27.95;18.88;;;;;;;;;;5043254;28;20237;-76
2021/11/19 04:06:43;;;;;;;26.70;18.88;;;;;;;;;;5041424;28;20206;-75
2021/11/19 04:09:08;;;;;;;29.15;19.20;;;;;;;;;;5036684;28;20189;-76
2021/11/19 04:11:34;;;;;;;26.05;17.92;;;;;;;;;;5037192;28;20177;-77
2021/11/19 04:13:59;;;;;;;27.27;18.52;;;;;;;;;;5035976;28;20193;-76
2021/11/19 04:16:27;;;;;;;35.43;20.37;;;;;;;;;;5024048;28;20209;-80
2021/11/19 04:18:52;;;;;;;33.55;19.35;;;;;;;;;;5020047;28;20287;-79
2021/11/19 04:21:18;;;;;;;34.95;20.10;;;;;;;;;;5042781;28;20185;-76
2021/11/19 04:23:47;;;;;;;27.63;19.27;;;;;;;;;;5036173;28;20651;-77
2021/11/19 04:26:12;;;;;;;25.80;17.42;;;;;;;;;;5035788;28;20193;-79
2021/11/19 04:28:37;;;;;;;22.95;17.75;;;;;;;;;;5018381;28;20517;-78
2021/11/19 04:31:03;;;;;;;29.08;18.60;;;;;;;;;;5040290;28;20194;-76
2021/11/19 04:33:29;;;;;;;26.23;18.27;;;;;;;;;;5035902;28;20186;-77
2021/11/19 04:35:54;;;;;;;28.42;18.33;;;;;;;;;;5023313;28;20198;-78
2021/11/19 04:38:21;;;;;;;28.90;17.38;;;;;;;;;;5041379;28;20190;-78
2021/11/19 04:40:46;;;;;;;27.98;16.42;;;;;;;;;;5042286;28;20181;-78
2021/11/19 04:43:12;;;;;;;26.92;18.13;;;;;;;;;;5040828;28;20598;-78
2021/11/19 04:45:37;;;;;;;34.40;18.15;;;;;;;;;;5041386;28;20213;-77
2021/11/19 04:48:03;;;;;;;28.13;17.23;;;;;;;;;;5027032;28;20962;-77
2021/11/19 04:50:30;;;;;;;27.85;16.95;;;;;;;;;;5037274;28;20296;-76
2021/11/19 04:52:56;;;;;;;24.83;17.17;;;;;;;;;;5042154;28;20634;-77
2021/11/19 04:55:21;;;;;;;25.60;16.42;;;;;;;;;;5035164;28;20197;-76
2021/11/19 04:57:47;;;;;;;24.95;16.75;;;;;;;;;;5038962;28;20184;-80
2021/11/19 05:00:17;;;;;;;23.92;16.52;;;;;;;;;;5037484;28;20740;-77
2021/11/19 05:02:43;;;;;;;30.58;18.70;;;;;;;;;;5041717;28;20237;-77
2021/11/19 05:05:08;;;;;;;23.17;16.90;;;;;;;;;;5040156;28;20288;-75
2021/11/19 05:07:34;;;;;;;23.05;16.58;;;;;;;;;;5020477;28;20198;-78
2021/11/19 05:09:59;;;;;;;24.63;15.88;;;;;;;;;;5017910;28;20186;-79
2021/11/19 05:12:27;;;;;;;25.77;16.38;;;;;;;;;;5037308;28;20291;-78
2021/11/19 05:14:52;;;;;;;24.33;17.15;;;;;;;;;;5036104;28;20256;-77
2021/11/19 05:17:21;;;;;;;28.65;18.08;;;;;;;;;;5038214;28;20197;-77
2021/11/19 05:19:47;;;;;;;25.30;17.52;;;;;;;;;;5022601;28;20193;-78
2021/11/19 05:22:12;;;;;;;25.35;16.17;;;;;;;;;;5037635;28;20218;-75
2021/11/19 05:24:38;;;;;;;25.65;17.20;;;;;;;;;;5040501;28;20204;-79
2021/11/19 05:27:04;;;;;;;27.65;17.55;;;;;;;;;;5037618;28;20201;-76
2021/11/19 05:29:29;;;;;;;25.73;17.55;;;;;;;;;;5038866;28;20756;-78
2021/11/19 05:31:55;;;;;;;23.45;16.52;;;;;;;;;;5040191;28;20183;-76
2021/11/19 05:34:21;;;;;;;23.83;16.27;;;;;;;;;;5034084;28;20189;-76
2021/11/19 05:36:46;;;;;;;21.98;15.00;;;;;;;;;;5018239;28;20205;-76
2021/11/19 05:39:11;;;;;;;22.30;16.60;;;;;;;;;;5040722;28;20205;-78
2021/11/19 05:41:37;;;;;;;23.67;17.77;;;;;;;;;;5035160;28;20379;-78
2021/11/19 05:44:03;;;;;;;24.30;16.63;;;;;;;;;;5037175;28;20866;-76
2021/11/19 05:46:29;;;;;;;23.77;15.90;;;;;;;;;;5039965;28;20240;-78
2021/11/19 05:48:56;;;;;;;24.52;15.57;;;;;;;;;;5026341;28;20174;-76
2021/11/19 05:51:22;;;;;;;20.90;15.40;;;;;;;;;;5047661;28;20635;-76
2021/11/19 05:53:48;;;;;;;27.42;16.00;;;;;;;;;;5029339;28;20235;-77
2021/11/19 05:56:15;;;;;;;25.40;16.00;;;;;;;;;;5051235;28;20202;-77
2021/11/19 05:58:40;;;;;;;24.52;16.02;;;;;;;;;;5049270;28;20723;-78
2021/11/19 06:01:07;;;;;;;22.00;15.35;;;;;;;;;;5051493;28;20181;-76
2021/11/19 06:03:33;;;;;;;19.90;14.52;;;;;;;;;;5037006;28;20197;-79
2021/11/19 06:05:58;;;;;;;22.65;15.45;;;;;;;;;;5018665;28;20553;-76
2021/11/19 06:08:23;;;;;;;29.48;15.45;;;;;;;;;;5031921;28;20196;-79
2021/11/19 06:10:53;;;;;;;23.90;14.55;;;;;;;;;;5038969;28;20196;-76
2021/11/19 06:13:20;;;;;;;26.35;15.52;;;;;;;;;;5035893;28;20646;-78
2021/11/19 06:15:48;;;;;;;21.52;14.15;;;;;;;;;;5034956;28;20682;-77
2021/11/19 06:18:16;;;;;;;20.92;15.20;;;;;;;;;;5035472;28;20189;-77
2021/11/19 06:20:43;;;;;;;26.38;16.55;;;;;;;;;;5037889;28;20184;-77
2021/11/19 06:23:11;;;;;;;21.83;14.38;;;;;;;;;;5034921;28;20239;-79
2021/11/19 06:25:37;;;;;;;19.48;14.05;;;;;;;;;;5037713;28;20220;-77
2021/11/19 06:28:03;;;;;;;20.05;14.70;;;;;;;;;;5034163;28;20264;-77
2021/11/19 06:30:29;;;;;;;21.48;14.48;;;;;;;;;;5018290;28;20177;-78
2021/11/19 06:32:54;;;;;;;23.00;13.95;;;;;;;;;;5037706;28;20552;-82
2021/11/19 06:35:20;;;;;;;19.33;13.25;;;;;;;;;;5035780;28;20201;-79
2021/11/19 06:37:45;;;;;;;20.25;13.85;;;;;;;;;;5038525;28;20184;-76
2021/11/19 06:40:14;;;;;;;18.35;13.50;;;;;;;;;;5035383;28;20732;-75
2021/11/19 06:42:39;;;;;;;24.27;15.45;;;;;;;;;;5035248;28;20249;-79
2021/11/19 06:45:05;;;;;;;20.50;13.68;;;;;;;;;;5034251;28;20182;-76
2021/11/19 06:47:30;;;;;;;18.75;13.20;;;;;;;;;;5036235;28;20194;-80
2021/11/19 06:49:55;;;;;;;23.10;13.55;;;;;;;;;;5037482;28;20227;-76
2021/11/19 06:52:21;;;;;;;21.40;13.95;;;;;;;;;;5021602;28;20643;-76
2021/11/19 06:54:46;;;;;;;21.40;14.15;;;;;;;;;;5019547;28;20180;-75
2021/11/19 06:57:11;;;;;;;21.50;13.65;;;;;;;;;;5034265;28;20215;-76
2021/11/19 06:59:37;;;;;;;22.35;14.63;;;;;;;;;;5036052;28;20274;-78
2021/11/19 07:02:04;;;;;;;22.73;15.07;;;;;;;;;;5031934;28;20185;-81
2021/11/19 07:04:29;;;;;;;16.73;12.85;;;;;;;;;;5034762;28;20215;-79
2021/11/19 07:06:54;;;;;;;18.17;13.02;;;;;;;;;;5035479;28;20403;-76
2021/11/19 07:09:20;;;;;;;19.58;12.65;;;;;;;;;;5035354;28;20177;-78
2021/11/19 07:11:45;;;;;;;19.65;12.73;;;;;;;;;;5022307;28;20178;-80
2021/11/19 07:14:11;;;;;;;17.38;12.52;;;;;;;;;;5035814;28;20264;-76
2021/11/19 07:16:36;;;;;;;17.08;11.68;;;;;;;;;;5043711;28;20245;-81
2021/11/19 07:19:02;;;;;;;18.00;11.98;;;;;;;;;;5034221;28;20300;-81
2021/11/19 07:21:28;;;;;;;22.50;12.85;;;;;;;;;;5014814;28;20197;-80
2021/11/19 07:23:53;;;;;;;17.70;12.63;;;;;;;;;;5034958;28;20228;-80
2021/11/19 07:26:19;;;;;;;16.20;12.13;;;;;;;;;;5034814;28;20219;-76
2021/11/19 07:28:45;;;;;;;18.83;11.70;;;;;;;;;;5034712;28;20192;-77
2021/11/19 07:31:11;;;;;;;23.77;14.15;;;;;;;;;;5037573;28;20178;-79
2021/11/19 07:33:37;;;;;;;20.00;13.23;;;;;;;;;;5035886;28;20190;-81
2021/11/19 07:36:04;;;;;;;22.17;12.20;;;;;;;;;;5036950;28;20213;-77
2021/11/19 07:38:29;;;;;;;18.75;11.68;;;;;;;;;;5018147;28;20551;-79
2021/11/19 07:40:55;;;;;;;16.45;11.02;;;;;;;;;;5018919;28;20181;-78
2021/11/19 07:43:22;;;;;;;19.48;11.93;;;;;;;;;;5037663;28;20216;-77
2021/11/19 07:45:48;;;;;;;19.92;10.18;;;;;;;;;;5041871;28;20210;-77
2021/11/19 07:48:15;;;;;;;13.90;10.48;;;;;;;;;;5037317;28;20173;-78
2021/11/19 07:50:42;;;;;;;19.95;11.88;;;;;;;;;;5038412;28;20601;-76
2021/11/19 07:53:08;;;;;;;21.00;13.18;;;;;;;;;;5037068;28;20205;-80
2021/11/19 07:55:34;;;;;;;15.50;9.82;;;;;;;;;;5040485;28;20620;-77
2021/11/19 07:58:00;;;;;;;17.42;9.55;;;;;;;;;;5038945;28;20189;-77
2021/11/19 08:00:27;;;;;;;15.23;10.48;;;;;;;;;;5036838;28;20599;-77
2021/11/19 08:02:52;;;;;;;20.05;9.45;;;;;;;;;;5019557;28;20319;-78
2021/11/19 08:05:17;;;;;;;17.13;10.13;;;;;;;;;;5040257;28;20284;-77
2021/11/19 08:07:43;;;;;;;20.50;11.30;;;;;;;;;;5039722;28;20541;-80
2021/11/19 08:10:08;;;;;;;14.85;10.20;;;;;;;;;;5023376;28;20694;-78
2021/11/19 08:12:34;;;;;;;15.82;9.98;;;;;;;;;;5039001;28;20529;-76
2021/11/19 08:14:59;;;;;;;23.48;10.70;;;;;;;;;;5042926;28;20650;-75
2021/11/19 08:17:26;;;;;;;20.02;10.48;;;;;;;;;;5040310;28;20304;-76
2021/11/19 08:19:52;;;;;;;17.02;9.80;;;;;;;;;;5043943;28;20220;-78
2021/11/19 08:22:17;;;;;;;17.85;8.98;;;;;;;;;;5036856;28;20293;-76
2021/11/19 08:24:43;;;;;;;13.43;10.10;;;;;;;;;;5020334;28;20683;-78
2021/11/19 08:27:10;;;;;;;16.33;9.23;;;;;;;;;;5044189;28;20604;-77
2021/11/19 08:29:36;;;;;;;16.45;9.25;;;;;;;;;;5042713;28;20209;-76
2021/11/19 08:32:02;;;;;;;11.43;8.63;;;;;;;;;;5025289;28;20183;-78
2021/11/19 08:34:28;;;;;;;11.00;7.35;;;;;;;;;;5042772;28;20256;-81
2021/11/19 08:36:53;;;;;;;16.95;9.30;;;;;;;;;;5044658;28;20284;-80
2021/11/19 08:39:20;;;;;;;14.35;8.98;;;;;;;;;;5034730;28;20242;-77
2021/11/19 08:41:46;;;;;;;17.33;9.15;;;;;;;;;;5044056;28;20197;-77
2021/11/19 08:44:11;;;;;;;13.43;9.32;;;;;;;;;;5038992;28;20866;-78
2021/11/19 08:46:38;;;;;;;14.13;7.80;;;;;;;;;;5199746;23;20604;-72
2021/11/19 08:49:06;;;;;;;14.55;7.57;;;;;;;;;;5030062;28;20944;-74
2021/11/19 08:51:32;;;;;;;12.73;8.20;;;;;;;;;;5029488;28;20227;-72
2021/11/19 08:54:00;;;;;;;12.95;8.23;;;;;;;;;;5031132;28;20190;-73
2021/11/19 08:56:26;;;;;;;19.05;8.23;;;;;;;;;;5027234;28;20210;-74
2021/11/19 08:58:51;;;;;;;14.57;7.40;;;;;;;;;;5022144;28;20181;-73
2021/11/19 09:01:17;;;;;;;15.10;7.70;;;;;;;;;;5018532;28;20230;-75
2021/11/19 09:03:43;;;;;;;13.00;8.73;;;;;;;;;;5018832;28;20695;-74
2021/11/19 09:06:09;;;;;;;16.83;8.95;;;;;;;;;;5018343;28;20217;-74
2021/11/19 09:08:35;;;;;;;13.73;7.38;;;;;;;;;;5018136;28;22486;-74
2021/11/19 09:11:01;;;;;;;14.90;7.07;;;;;;;;;;5019948;28;20352;-73
2021/11/19 09:13:27;;;;;;;15.65;7.70;;;;;;;;;;5019361;28;20904;-73
2021/11/19 09:15:52;;;;;;;12.18;6.80;;;;;;;;;;5005577;28;20206;-72
2021/11/19 09:18:25;;;;;;;19.85;9.43;;;;;;;;;;5019756;28;20270;-75
2021/11/19 09:20:50;;;;;;;12.10;6.80;;;;;;;;;;5020896;28;20273;-74
2021/11/19 09:23:25;;;;;;;15.07;7.55;;;;;;;;;;5017075;28;20193;-75
2021/11/19 09:25:51;;;;;;;13.48;7.30;;;;;;;;;;5019609;28;23717;-73
2021/11/19 09:28:18;;;;;;;12.80;6.68;;;;;;;;;;5020740;28;20181;-72
2021/11/19 09:30:45;;;;;;;12.10;6.22;;;;;;;;;;5018603;28;20576;-73
2021/11/19 09:33:13;;;;;;;12.80;6.45;;;;;;;;;;5014216;28;20186;-73
2021/11/19 09:35:39;;;;;;;11.88;6.68;;;;;;;;;;5020363;28;20480;-74
2021/11/19 09:38:05;;;;;;;11.57;7.30;;;;;;;;;;5015289;28;20648;-74
2021/11/19 09:40:36;;;;;;;15.73;7.35;;;;;;;;;;5016517;28;20178;-75
2021/11/19 09:43:09;;;;;;;14.20;7.65;;;;;;;;;;5017430;28;20250;-75
2021/11/19 09:45:53;;;;;;;11.93;6.25;;;;;;;;;;4997557;28;20186;-73
2021/11/19 09:48:24;;;;;;;12.95;6.38;;;;;;;;;;5019074;28;20188;-73
2021/11/19 09:50:50;;;;;;;13.70;6.40;;;;;;;;;;5013848;28;20565;-73
2021/11/19 09:53:21;;;;;;;8.98;5.28;;;;;;;;;;5015530;28;20186;-72
2021/11/19 09:56:06;;;;;;;15.18;5.97;;;;;;;;;;5012090;28;20570;-73
2021/11/19 09:58:35;;;;;;;10.65;6.13;;;;;;;;;;5017344;28;20186;-74
2021/11/19 10:01:13;;;;;;;13.70;5.20;;;;;;;;;;5018550;28;20181;-73
2021/11/19 10:03:57;;;;;;;8.98;5.35;;;;;;;;;;5001187;28;20216;-73
2021/11/19 10:06:28;;;;;;;11.20;4.80;;;;;;;;;;5017344;28;20190;-74
2021/11/19 10:08:58;;;;;;;14.23;5.90;;;;;;;;;;5016381;28;20184;-74
2021/11/19 10:11:33;;;;;;;8.23;4.88;;;;;;;;;;5021950;28;20208;-73
2021/11/19 10:14:16;;;;;;;9.52;5.57;;;;;;;;;;5000012;28;20285;-75
2021/11/19 10:16:42;;;;;;;7.63;5.25;;;;;;;;;;5024502;28;20675;-73
2021/11/19 10:19:16;;;;;;;9.85;4.95;;;;;;;;;;5020484;28;20196;-74
2021/11/19 10:22:05;;;;;;;9.77;5.53;;;;;;;;;;5003069;28;20242;-73
2021/11/19 10:24:33;;;;;;;11.13;5.70;;;;;;;;;;4964912;28;20461;-74
2021/11/19 10:26:58;;;;;;;9.73;4.97;;;;;;;;;;5019532;28;20782;-73
2021/11/19 10:29:25;;;;;;;11.18;6.25;;;;;;;;;;4997526;28;20187;-75
2021/11/19 10:31:50;;;;;;;9.07;4.82;;;;;;;;;;5001253;28;20192;-73
2021/11/19 10:34:34;;;;;;;10.52;5.55;;;;;;;;;;4996899;28;20194;-74
2021/11/19 10:37:12;;;;;;;9.93;5.25;;;;;;;;;;5020045;28;20230;-74
2021/11/19 10:39:59;;;;;;;9.27;5.60;;;;;;;;;;5019360;28;20182;-73
2021/11/19 10:42:56;;;;;;;15.40;5.88;;;;;;;;;;4962237;28;20221;-72
2021/11/19 10:45:42;;;;;;;6.95;4.95;;;;;;;;;;5020033;28;20177;-72
2021/11/19 10:48:08;;;;;;;8.75;5.80;;;;;;;;;;4966118;28;20198;-73
2021/11/19 10:50:56;;;;;;;9.10;4.05;;;;;;;;;;5020834;28;20506;-72
2021/11/19 10:53:22;;;;;;;9.00;5.28;;;;;;;;;;4969444;28;20289;-73
2021/11/19 10:56:01;;;;;;;9.85;4.53;;;;;;;;;;5023850;28;20246;-72
2021/11/19 10:58:41;;;;;;;10.20;5.72;;;;;;;;;;5025843;28;20459;-74
2021/11/19 11:01:25;;;;;;;8.77;4.63;;;;;;;;;;5029752;28;20194;-73
2021/11/19 11:03:54;;;;;;;7.32;4.93;;;;;;;;;;5011359;28;20241;-73
2021/11/19 11:06:29;;;;;;;9.00;5.68;;;;;;;;;;5016507;28;20679;-72
2021/11/19 11:09:14;;;;;;;10.38;5.75;;;;;;;;;;5018657;28;20187;-73
2021/11/19 11:11:39;;;;;;;9.48;5.20;;;;;;;;;;5022479;28;20547;-73
2021/11/19 11:14:09;;;;;;;7.93;4.50;;;;;;;;;;5022400;28;20201;-73
2021/11/19 11:16:43;;;;;;;6.13;4.68;;;;;;;;;;5023474;28;20588;-76
2021/11/19 11:19:11;;;;;;;7.13;4.65;;;;;;;;;;5021149;28;20178;-75
2021/11/19 11:21:41;;;;;;;7.85;4.90;;;;;;;;;;5018572;28;20174;-73
2021/11/19 11:24:18;;;;;;;7.10;4.68;;;;;;;;;;5018302;28;20210;-73
2021/11/19 11:26:52;;;;;;;7.60;5.03;;;;;;;;;;5020004;28;20203;-74
2021/11/19 11:29:18;;;;;;;9.82;5.43;;;;;;;;;;5020173;28;20239;-73
2021/11/19 11:31:52;;;;;;;7.63;5.90;;;;;;;;;;5001022;28;20194;-74
2021/11/19 11:34:17;;;;;;;9.18;6.22;;;;;;;;;;5022976;28;20490;-73
2021/11/19 11:36:47;;;;;;;7.97;5.78;;;;;;;;;;5022551;28;20194;-73
2021/11/19 11:39:18;;;;;;;6.68;5.93;;;;;;;;;;5018621;28;20193;-73
2021/11/19 11:41:46;;;;;;;8.35;5.10;;;;;;;;;;5022237;28;20337;-73
2021/11/19 11:44:13;;;;;;;8.50;5.38;;;;;;;;;;5024631;28;20671;-72
2021/11/19 11:46:38;;;;;;;10.55;5.20;;;;;;;;;;5021980;28;20252;-75
2021/11/19 11:49:03;;;;;;;7.55;4.70;;;;;;;;;;5005942;28;20293;-73
2021/11/19 11:51:42;;;;;;;5.93;3.97;;;;;;;;;;5020090;28;20501;-74
2021/11/19 11:54:21;;;;;;;6.00;3.78;;;;;;;;;;5014001;28;20186;-72
2021/11/19 11:56:48;;;;;;;9.25;3.92;;;;;;;;;;5001411;28;20201;-73
2021/11/19 11:59:26;;;;;;;9.85;3.30;;;;;;;;;;5016859;28;20182;-75
2021/11/19 12:01:56;;;;;;;7.00;3.58;;;;;;;;;;5020277;28;20187;-74
2021/11/19 12:04:30;;;;;;;9.60;3.08;;;;;;;;;;5019317;28;20913;-72
2021/11/19 12:07:08;;;;;;;2.53;1.95;;;;;;;;;;5021991;28;20258;-74
2021/11/19 12:09:36;;;;;;;3.47;2.50;;;;;;;;;;5018300;28;20221;-72
2021/11/19 12:12:11;;;;;;;6.47;2.42;;;;;;;;;;5020286;28;20218;-71
2021/11/19 12:14:39;;;;;;;4.90;2.00;;;;;;;;;;5023700;28;20239;-74
2021/11/19 12:17:24;;;;;;;5.32;3.25;;;;;;;;;;5019605;28;20256;-73
2021/11/19 12:20:00;;;;;;;4.15;2.35;;;;;;;;;;5020021;28;20181;-73
2021/11/19 12:22:25;;;;;;;6.97;2.25;;;;;;;;;;5003458;28;20239;-72
2021/11/19 12:25:09;;;;;;;3.03;1.83;;;;;;;;;;5016674;28;20186;-75
2021/11/19 12:27:38;;;;;;;6.97;1.98;;;;;;;;;;5018598;28;20455;-74
2021/11/19 12:30:14;;;;;;;9.43;2.08;;;;;;;;;;5020938;28;20181;-73
2021/11/19 12:32:49;;;;;;;4.10;1.95;;;;;;;;;;5019564;28;22389;-73
2021/11/19 12:35:34;;;;;;;4.65;1.90;;;;;;;;;;5023391;28;20186;-72
2021/11/19 12:38:03;;;;;;;5.50;1.98;;;;;;;;;;5018684;28;20194;-74
2021/11/19 12:40:28;;;;;;;6.30;2.42;;;;;;;;;;5025480;28;20223;-73
2021/11/19 12:42:56;;;;;;;5.03;2.00;;;;;;;;;;5020267;28;20198;-71
2021/11/19 12:45:24;;;;;;;6.40;2.45;;;;;;;;;;5027048;28;20518;-74
2021/11/19 12:48:08;;;;;;;4.93;2.30;;;;;;;;;;5019695;28;20277;-74
2021/11/19 12:50:41;;;;;;;4.53;1.48;;;;;;;;;;5023833;28;20198;-72
2021/11/19 12:53:07;;;;;;;4.60;2.05;;;;;;;;;;5017933;28;20236;-74
2021/11/19 12:55:32;;;;;;;4.63;1.52;;;;;;;;;;5023834;28;20707;-72
2021/11/19 12:57:57;;;;;;;4.63;2.05;;;;;;;;;;5020491;28;20177;-72
2021/11/19 13:00:35;;;;;;;6.13;1.60;;;;;;;;;;5021174;28;20650;-71
2021/11/19 13:03:12;;;;;;;7.70;1.50;;;;;;;;;;5014294;28;20289;-73
2021/11/19 13:06:01;;;;;;;5.53;1.60;;;;;;;;;;5016502;28;20208;-72
2021/11/19 13:08:38;;;;;;;3.92;1.55;;;;;;;;;;5020105;28;20236;-71
2021/11/19 13:11:28;;;;;;;5.50;1.63;;;;;;;;;;5021017;28;20201;-70
2021/11/19 13:14:13;;;;;;;5.22;1.98;;;;;;;;;;5019317;28;20558;-72
2021/11/19 13:16:40;;;;;;;6.53;1.40;;;;;;;;;;5025160;28;20209;-73
2021/11/19 13:19:25;;;;;;;2.92;1.40;;;;;;;;;;5021079;28;20194;-73
2021/11/19 13:21:51;;;;;;;3.53;1.40;;;;;;;;;;5022386;28;20186;-74
2021/11/19 13:24:16;;;;;;;4.30;1.80;;;;;;;;;;5015701;28;20301;-74
2021/11/19 13:26:44;;;;;;;2.03;1.30;;;;;;;;;;5019950;28;20202;-73
2021/11/19 13:29:11;;;;;;;4.60;1.40;;;;;;;;;;5014371;28;20439;-72
2021/11/19 13:31:41;;;;;;;4.80;1.10;;;;;;;;;;5020992;28;20662;-73
2021/11/19 13:34:09;;;;;;;5.93;1.67;;;;;;;;;;5015725;28;20604;-73
2021/11/19 13:36:34;;;;;;;4.22;1.05;;;;;;;;;;5018203;28;20842;-71
2021/11/19 13:39:18;;;;;;;13.65;2.30;;;;;;;;;;5018158;28;20563;-74
2021/11/19 13:42:04;;;;;;;2.53;1.13;;;;;;;;;;5010597;28;20205;-71
2021/11/19 13:44:48;;;;;;;4.43;1.20;;;;;;;;;;4992701;28;20217;-72
2021/11/19 13:47:19;;;;;;;4.13;1.63;;;;;;;;;;4997550;28;20320;-74
2021/11/19 13:49:58;;;;;;;4.53;1.30;;;;;;;;;;5014394;28;20193;-74
2021/11/19 13:52:25;;;;;;;3.10;1.10;;;;;;;;;;5018686;28;20190;-73
2021/11/19 13:54:55;;;;;;;5.03;1.13;;;;;;;;;;5014349;28;20208;-74
2021/11/19 13:57:32;;;;;;;3.58;1.00;;;;;;;;;;5084219;27;21121;-72
2021/11/19 14:00:01;;;;;;;4.75;1.40;;;;;;;;;;5085161;28;20196;-75
2021/11/19 14:02:29;;;;;;;7.80;1.38;;;;;;;;;;5086793;28;20203;-72
2021/11/19 14:04:55;;;;;;;5.50;1.70;;;;;;;;;;5082782;28;20229;-72
2021/11/19 14:07:30;;;;;;;9.90;1.88;;;;;;;;;;5088278;28;20196;-71
2021/11/19 14:10:07;;;;;;;2.85;1.10;;;;;;;;;;5095559;22;20720;-78
2021/11/19 14:12:32;;;;;;;6.05;1.33;;;;;;;;;;5072972;28;20657;-80
2021/11/19 14:15:00;;;;;;;14.05;2.97;;;;;;;;;;5072896;28;20194;-78
2021/11/19 14:17:41;;;;;;;4.32;1.25;;;;;;;;;;5091781;28;20437;-75
2021/11/19 14:22:59;;;;;;;3.90;1.40;;;;;;;;;;5031127;28;20186;-80
2021/11/19 14:25:25;;;;;;;3.53;1.58;;;;;;;;;;5065159;28;20674;-79
2021/11/19 14:27:52;;;;;;;3.33;1.65;;;;;;;;;;5051034;28;20315;-77
2021/11/19 14:30:17;;;;;;;2.70;1.42;;;;;;;;;;5057233;28;20690;-78
2021/11/19 14:32:53;;;;;;;4.25;1.30;;;;;;;;;;5055688;28;20192;-78
2021/11/19 14:35:24;;;;;;;3.47;1.25;;;;;;;;;;5056270;28;20276;-77
2021/11/19 14:37:50;;;;;;;6.63;1.10;;;;;;;;;;5054089;28;20178;-81